Time;durP1;ratioP1;P1;durP2;ratioP2;P2;SDS_P1;SDS_P2;PMS_P1;PMS_P2;Temp;Humidity;BMP_temperature;BMP_pressure;BME280_temperature;BME280_humidity;BME280_pressure;Samples;Min_cycle;Max_cycle;Signal;HPM_P1;HPM_P2
2021/01/08 00:00:06;;;;;;;4.85;3.13;;;;;;;;;;5071627;28;20033;-69
2021/01/08 00:02:32;;;;;;;3.75;3.13;;;;;;;;;;5070962;28;20033;-69
2021/01/08 00:04:58;;;;;;;3.50;3.22;;;;;;;;;;5070457;28;20043;-69
2021/01/08 00:07:24;;;;;;;2.95;2.65;;;;;;;;;;5071032;28;20032;-69
2021/01/08 00:09:50;;;;;;;3.45;3.15;;;;;;;;;;5070876;28;20024;-69
2021/01/08 00:12:16;;;;;;;4.20;2.88;;;;;;;;;;5071371;28;20151;-69
2021/01/08 00:14:42;;;;;;;3.65;2.92;;;;;;;;;;5070343;28;20024;-69
2021/01/08 00:17:08;;;;;;;2.70;2.50;;;;;;;;;;5071105;28;20035;-70
2021/01/08 00:19:34;;;;;;;3.50;2.40;;;;;;;;;;5070577;28;20025;-69
2021/01/08 00:22:00;;;;;;;2.90;2.65;;;;;;;;;;5070779;28;20090;-70
2021/01/08 00:24:26;;;;;;;3.30;3.05;;;;;;;;;;5070643;28;20024;-70
2021/01/08 00:26:54;;;;;;;3.00;2.53;;;;;;;;;;5070236;28;20039;-69
2021/01/08 00:29:21;;;;;;;5.05;3.05;;;;;;;;;;5070562;28;20039;-69
2021/01/08 00:31:48;;;;;;;4.90;4.40;;;;;;;;;;5070033;28;20035;-69
2021/01/08 00:34:18;;;;;;;4.03;3.05;;;;;;;;;;5070924;28;20025;-69
2021/01/08 00:36:48;;;;;;;3.67;2.88;;;;;;;;;;5056791;28;20049;-69
2021/01/08 00:39:15;;;;;;;3.38;3.08;;;;;;;;;;5050489;28;20048;-69
2021/01/08 00:41:41;;;;;;;5.07;3.95;;;;;;;;;;5049763;28;20029;-69
2021/01/08 00:44:07;;;;;;;4.47;3.33;;;;;;;;;;5050402;28;20072;-69
2021/01/08 00:46:34;;;;;;;4.72;3.05;;;;;;;;;;5050177;28;20107;-69
2021/01/08 00:49:00;;;;;;;3.40;3.08;;;;;;;;;;5050757;28;20036;-69
2021/01/08 00:51:27;;;;;;;3.05;2.75;;;;;;;;;;5050050;28;20028;-69
2021/01/08 00:53:53;;;;;;;5.07;3.35;;;;;;;;;;5049371;28;20036;-69
2021/01/08 00:56:19;;;;;;;4.53;3.65;;;;;;;;;;5049536;28;20021;-69
2021/01/08 00:58:45;;;;;;;4.88;3.88;;;;;;;;;;5049718;28;20029;-69
2021/01/08 01:01:12;;;;;;;3.50;2.88;;;;;;;;;;5050256;28;20048;-69
2021/01/08 01:03:38;;;;;;;3.70;3.05;;;;;;;;;;5049452;28;20120;-69
2021/01/08 01:06:04;;;;;;;3.65;2.78;;;;;;;;;;5050455;28;20044;-69
2021/01/08 01:08:30;;;;;;;5.75;4.00;;;;;;;;;;5050481;28;20025;-69
2021/01/08 01:10:56;;;;;;;3.70;3.10;;;;;;;;;;5050071;28;20032;-70
2021/01/08 01:13:22;;;;;;;3.72;2.63;;;;;;;;;;5050188;28;20479;-70
2021/01/08 01:15:49;;;;;;;3.85;2.75;;;;;;;;;;5049400;28;20025;-70
2021/01/08 01:18:15;;;;;;;4.63;3.28;;;;;;;;;;5050464;28;20021;-70
2021/01/08 01:20:41;;;;;;;4.35;3.28;;;;;;;;;;5049988;28;20048;-70
2021/01/08 01:23:07;;;;;;;2.97;2.47;;;;;;;;;;5050365;28;20025;-70
2021/01/08 01:25:33;;;;;;;3.00;2.72;;;;;;;;;;5049579;28;20447;-69
2021/01/08 01:28:00;;;;;;;3.38;2.67;;;;;;;;;;5049933;28;20464;-70
2021/01/08 01:30:26;;;;;;;3.05;2.40;;;;;;;;;;5050219;28;20032;-70
2021/01/08 01:32:52;;;;;;;3.03;2.72;;;;;;;;;;5049564;28;20134;-70
2021/01/08 01:35:18;;;;;;;2.75;2.38;;;;;;;;;;5049373;28;20028;-70
2021/01/08 01:37:44;;;;;;;3.45;3.13;;;;;;;;;;5049321;28;20055;-70
2021/01/08 01:40:10;;;;;;;2.67;2.42;;;;;;;;;;5050568;28;20037;-70
2021/01/08 01:42:36;;;;;;;4.75;3.40;;;;;;;;;;5049552;28;20037;-70
2021/01/08 01:45:03;;;;;;;3.08;2.67;;;;;;;;;;5049551;28;20106;-70
2021/01/08 01:47:29;;;;;;;3.47;2.63;;;;;;;;;;5050133;28;20482;-70
2021/01/08 01:49:55;;;;;;;8.07;5.60;;;;;;;;;;5049291;28;20802;-70
2021/01/08 01:52:21;;;;;;;3.75;3.03;;;;;;;;;;5050179;28;20444;-70
2021/01/08 01:54:47;;;;;;;2.20;2.00;;;;;;;;;;5048912;28;20021;-70
2021/01/08 01:57:13;;;;;;;4.90;3.60;;;;;;;;;;5050056;28;20041;-70
2021/01/08 01:59:39;;;;;;;3.75;2.72;;;;;;;;;;5049295;28;20064;-70
2021/01/08 02:02:12;;;;;;;2.92;2.38;;;;;;;;;;5049660;28;20064;-70
2021/01/08 02:04:39;;;;;;;3.60;2.50;;;;;;;;;;5050802;28;20043;-70
2021/01/08 02:07:05;;;;;;;4.03;3.22;;;;;;;;;;5053912;28;20051;-70
2021/01/08 02:09:31;;;;;;;2.63;2.40;;;;;;;;;;5053992;28;20033;-70
2021/01/08 02:11:58;;;;;;;2.95;2.70;;;;;;;;;;5052634;28;20032;-70
2021/01/08 02:14:27;;;;;;;3.08;2.35;;;;;;;;;;5053233;28;20040;-70
2021/01/08 02:16:55;;;;;;;3.10;2.88;;;;;;;;;;5052806;28;20040;-70
2021/01/08 02:19:40;;;;;;;2.45;2.25;;;;;;;;;;5053909;28;20025;-70
2021/01/08 02:22:11;;;;;;;2.63;2.42;;;;;;;;;;5053356;28;20029;-70
2021/01/08 02:24:39;;;;;;;2.45;1.92;;;;;;;;;;5052738;28;20029;-70
2021/01/08 02:27:06;;;;;;;2.65;2.45;;;;;;;;;;5053430;28;20119;-70
2021/01/08 02:29:32;;;;;;;3.28;3.03;;;;;;;;;;5053110;28;20044;-70
2021/01/08 02:31:58;;;;;;;2.85;2.10;;;;;;;;;;5052844;28;20166;-70
2021/01/08 02:34:25;;;;;;;2.30;1.80;;;;;;;;;;5052864;28;20367;-70
2021/01/08 02:36:52;;;;;;;2.25;2.03;;;;;;;;;;5051967;28;20171;-70
2021/01/08 02:39:18;;;;;;;3.10;2.58;;;;;;;;;;5053361;28;20032;-70
2021/01/08 02:41:46;;;;;;;2.65;2.45;;;;;;;;;;5052598;28;20040;-70
2021/01/08 02:44:15;;;;;;;2.47;2.10;;;;;;;;;;5052411;28;20575;-70
2021/01/08 02:46:45;;;;;;;3.28;2.70;;;;;;;;;;5052140;28;20031;-70
2021/01/08 02:49:11;;;;;;;3.83;2.72;;;;;;;;;;5053381;28;20037;-70
2021/01/08 02:51:38;;;;;;;3.08;2.78;;;;;;;;;;5052490;28;20036;-70
2021/01/08 02:54:04;;;;;;;4.75;3.40;;;;;;;;;;5052141;28;20536;-70
2021/01/08 02:56:33;;;;;;;3.15;2.80;;;;;;;;;;5052833;28;20037;-70
2021/01/08 02:59:00;;;;;;;2.83;2.45;;;;;;;;;;5052194;28;20091;-70
2021/01/08 03:01:26;;;;;;;2.63;1.70;;;;;;;;;;5052630;28;20020;-70
2021/01/08 03:03:52;;;;;;;2.58;2.28;;;;;;;;;;5051385;28;20588;-70
2021/01/08 03:06:19;;;;;;;2.25;2.00;;;;;;;;;;5052225;28;20029;-70
2021/01/08 03:08:45;;;;;;;2.20;2.00;;;;;;;;;;5050156;28;20457;-70
2021/01/08 03:11:11;;;;;;;3.00;2.55;;;;;;;;;;5052605;28;20083;-70
2021/01/08 03:13:41;;;;;;;2.55;1.88;;;;;;;;;;5051987;28;20442;-70
2021/01/08 03:16:07;;;;;;;1.90;1.80;;;;;;;;;;5051528;28;20071;-70
2021/01/08 03:18:34;;;;;;;2.38;2.17;;;;;;;;;;5052222;28;20082;-70
2021/01/08 03:21:00;;;;;;;2.90;2.65;;;;;;;;;;5051744;28;20041;-70
2021/01/08 03:23:26;;;;;;;1.77;1.67;;;;;;;;;;5052134;28;20544;-70
2021/01/08 03:25:53;;;;;;;2.20;2.00;;;;;;;;;;5050784;28;20029;-69
2021/01/08 03:28:19;;;;;;;1.90;1.80;;;;;;;;;;5052480;28;20439;-70
2021/01/08 03:30:45;;;;;;;1.85;1.70;;;;;;;;;;5051406;28;20487;-70
2021/01/08 03:33:11;;;;;;;2.13;1.70;;;;;;;;;;5052035;28;20368;-70
2021/01/08 03:35:38;;;;;;;1.70;1.60;;;;;;;;;;5050663;28;20132;-70
2021/01/08 03:38:04;;;;;;;1.92;1.73;;;;;;;;;;5051802;28;20025;-70
2021/01/08 03:40:30;;;;;;;2.83;1.75;;;;;;;;;;5052152;28;20029;-70
2021/01/08 03:42:56;;;;;;;2.33;2.13;;;;;;;;;;5050533;28;20041;-70
2021/01/08 03:45:22;;;;;;;2.95;2.10;;;;;;;;;;5051825;28;20031;-70
2021/01/08 03:47:48;;;;;;;1.95;1.58;;;;;;;;;;5050464;28;20159;-70
2021/01/08 03:50:14;;;;;;;2.25;1.45;;;;;;;;;;5051808;28;20471;-70
2021/01/08 03:52:40;;;;;;;1.77;1.65;;;;;;;;;;5050884;28;20021;-70
2021/01/08 03:55:06;;;;;;;3.45;1.95;;;;;;;;;;5051803;28;20032;-70
2021/01/08 03:57:32;;;;;;;1.60;1.48;;;;;;;;;;5050778;28;20395;-70
2021/01/08 03:59:59;;;;;;;1.60;1.50;;;;;;;;;;5051749;28;20040;-70
2021/01/08 04:02:25;;;;;;;1.73;1.45;;;;;;;;;;5051535;28;20468;-70
2021/01/08 04:04:51;;;;;;;1.40;1.30;;;;;;;;;;5050529;28;20033;-70
2021/01/08 04:07:17;;;;;;;3.50;1.20;;;;;;;;;;5051515;28;20468;-70
2021/01/08 04:09:43;;;;;;;1.25;1.25;;;;;;;;;;5050469;28;20024;-70
2021/01/08 04:12:09;;;;;;;2.08;1.42;;;;;;;;;;5051401;28;20025;-70
2021/01/08 04:14:35;;;;;;;1.88;1.30;;;;;;;;;;5050735;28;20033;-70
2021/01/08 04:17:01;;;;;;;1.48;1.38;;;;;;;;;;5051012;28;20353;-70
2021/01/08 04:19:27;;;;;;;1.65;1.55;;;;;;;;;;5050919;28;20029;-70
2021/01/08 04:21:53;;;;;;;1.30;1.08;;;;;;;;;;5050478;28;20662;-70
2021/01/08 04:24:19;;;;;;;1.52;1.10;;;;;;;;;;5050505;28;20037;-70
2021/01/08 04:26:45;;;;;;;1.52;1.42;;;;;;;;;;5049847;28;20059;-70
2021/01/08 04:29:12;;;;;;;1.60;1.08;;;;;;;;;;5050753;28;20025;-70
2021/01/08 04:31:38;;;;;;;2.33;1.63;;;;;;;;;;5049998;28;20484;-70
2021/01/08 04:34:04;;;;;;;1.52;1.42;;;;;;;;;;5050715;28;20107;-70
2021/01/08 04:36:30;;;;;;;0.80;0.80;;;;;;;;;;5050120;28;20072;-70
2021/01/08 04:38:56;;;;;;;1.20;1.10;;;;;;;;;;5050368;28;20033;-70
2021/01/08 04:41:22;;;;;;;1.75;1.40;;;;;;;;;;5051246;28;20029;-70
2021/01/08 04:43:48;;;;;;;1.40;1.02;;;;;;;;;;5049941;28;20467;-70
2021/01/08 04:46:22;;;;;;;1.30;1.20;;;;;;;;;;5050557;28;20029;-70
2021/01/08 04:48:49;;;;;;;1.10;0.98;;;;;;;;;;5050173;28;20033;-70
2021/01/08 04:51:16;;;;;;;1.30;1.20;;;;;;;;;;5050692;28;20120;-70
2021/01/08 04:53:42;;;;;;;1.23;1.20;;;;;;;;;;5049391;28;20032;-70
2021/01/08 04:56:10;;;;;;;0.95;0.90;;;;;;;;;;5050609;28;20059;-70
2021/01/08 04:58:36;;;;;;;1.35;1.23;;;;;;;;;;5049977;28;20029;-70
2021/01/08 05:01:03;;;;;;;0.75;0.75;;;;;;;;;;5050366;28;20572;-70
2021/01/08 05:03:29;;;;;;;1.67;1.00;;;;;;;;;;5049979;28;20463;-70
2021/01/08 05:05:59;;;;;;;0.80;0.80;;;;;;;;;;5049656;28;20090;-70
2021/01/08 05:08:26;;;;;;;1.20;1.10;;;;;;;;;;5050301;28;20036;-70
2021/01/08 05:10:52;;;;;;;1.50;1.40;;;;;;;;;;5049431;28;20066;-70
2021/01/08 05:13:18;;;;;;;1.58;1.48;;;;;;;;;;5050443;28;20036;-70
2021/01/08 05:15:51;;;;;;;1.05;0.95;;;;;;;;;;5049370;28;20048;-70
2021/01/08 05:18:18;;;;;;;1.05;0.85;;;;;;;;;;5050113;28;20025;-70
2021/01/08 05:20:44;;;;;;;0.98;0.98;;;;;;;;;;5049276;28;20040;-70
2021/01/08 05:23:10;;;;;;;1.75;1.65;;;;;;;;;;5049985;28;20036;-70
2021/01/08 05:25:37;;;;;;;1.45;1.00;;;;;;;;;;5049263;28;20066;-70
2021/01/08 05:28:05;;;;;;;1.42;1.33;;;;;;;;;;5050209;28;20412;-70
2021/01/08 05:30:31;;;;;;;0.70;0.70;;;;;;;;;;5050538;28;20048;-70
2021/01/08 05:32:58;;;;;;;1.00;0.80;;;;;;;;;;5049392;28;20103;-70
2021/01/08 05:35:25;;;;;;;1.27;1.17;;;;;;;;;;5049270;28;20029;-70
2021/01/08 05:37:52;;;;;;;2.47;1.30;;;;;;;;;;5048932;28;20025;-70
2021/01/08 05:40:24;;;;;;;0.77;0.77;;;;;;;;;;5053619;28;20025;-70
2021/01/08 05:42:54;;;;;;;1.35;1.00;;;;;;;;;;5053048;28;20024;-70
2021/01/08 05:45:20;;;;;;;0.90;0.90;;;;;;;;;;5054146;28;20495;-70
2021/01/08 05:47:48;;;;;;;1.58;0.80;;;;;;;;;;5053465;28;20099;-70
2021/01/08 05:50:16;;;;;;;0.80;0.80;;;;;;;;;;5054064;28;20037;-70
2021/01/08 05:52:43;;;;;;;1.33;1.20;;;;;;;;;;5053145;28;20471;-70
2021/01/08 05:55:12;;;;;;;1.00;1.00;;;;;;;;;;5053471;28;20021;-70
2021/01/08 05:57:38;;;;;;;0.95;0.82;;;;;;;;;;5053380;28;20029;-70
2021/01/08 06:00:05;;;;;;;1.67;1.13;;;;;;;;;;5053578;28;20029;-70
2021/01/08 06:02:32;;;;;;;0.70;0.70;;;;;;;;;;5053824;28;20036;-70
2021/01/08 06:04:59;;;;;;;1.58;1.25;;;;;;;;;;5052723;28;20475;-70
2021/01/08 06:07:28;;;;;;;0.85;0.85;;;;;;;;;;5053835;28;20029;-70
2021/01/08 06:09:54;;;;;;;1.25;1.15;;;;;;;;;;5052994;28;20036;-70
2021/01/08 06:12:21;;;;;;;0.77;0.70;;;;;;;;;;5053891;28;20037;-70
2021/01/08 06:14:48;;;;;;;0.80;0.80;;;;;;;;;;5051852;28;20483;-70
2021/01/08 06:17:17;;;;;;;2.00;1.13;;;;;;;;;;5053695;28;20029;-69
2021/01/08 06:19:44;;;;;;;0.82;0.82;;;;;;;;;;5053149;28;20451;-70
2021/01/08 06:22:10;;;;;;;1.10;0.90;;;;;;;;;;5052919;28;20033;-70
2021/01/08 06:24:36;;;;;;;2.42;1.23;;;;;;;;;;5052405;28;20039;-70
2021/01/08 06:27:03;;;;;;;1.83;1.30;;;;;;;;;;5052983;28;20025;-70
2021/01/08 06:29:33;;;;;;;1.25;1.05;;;;;;;;;;5053068;28;20033;-70
2021/01/08 06:32:09;;;;;;;1.25;1.10;;;;;;;;;;5053202;28;20044;-70
2021/01/08 06:34:44;;;;;;;0.80;0.80;;;;;;;;;;5052248;28;20028;-70
2021/01/08 06:37:14;;;;;;;0.65;0.65;;;;;;;;;;5052757;28;20055;-70
2021/01/08 06:39:44;;;;;;;1.15;0.60;;;;;;;;;;5052205;28;20025;-70
2021/01/08 06:42:10;;;;;;;0.55;0.55;;;;;;;;;;5053046;28;20091;-70
2021/01/08 06:44:37;;;;;;;0.70;0.70;;;;;;;;;;5052476;28;20096;-70
2021/01/08 06:47:05;;;;;;;0.77;0.77;;;;;;;;;;5052350;28;20482;-70
2021/01/08 06:49:32;;;;;;;0.98;0.98;;;;;;;;;;5051879;28;20039;-70
2021/01/08 06:52:02;;;;;;;1.00;0.88;;;;;;;;;;5051758;28;20037;-70
2021/01/08 06:54:29;;;;;;;0.98;0.93;;;;;;;;;;5048882;28;20467;-70
2021/01/08 06:56:58;;;;;;;0.73;0.60;;;;;;;;;;5056036;28;20033;-70
2021/01/08 06:59:26;;;;;;;0.40;0.40;;;;;;;;;;5052227;28;20033;-70
2021/01/08 07:01:53;;;;;;;1.15;0.80;;;;;;;;;;5049778;28;20032;-69
2021/01/08 07:04:23;;;;;;;2.35;0.85;;;;;;;;;;5060872;28;20082;-69
2021/01/08 07:06:49;;;;;;;1.70;0.63;;;;;;;;;;5066715;28;20029;-69
2021/01/08 07:09:16;;;;;;;1.35;0.82;;;;;;;;;;5071220;28;20032;-69
2021/01/08 07:11:42;;;;;;;0.75;0.75;;;;;;;;;;5050162;28;20024;-69
2021/01/08 07:14:08;;;;;;;1.00;0.90;;;;;;;;;;5062370;28;20351;-69
2021/01/08 07:16:35;;;;;;;2.45;1.08;;;;;;;;;;5068394;28;20105;-69
2021/01/08 07:19:05;;;;;;;1.27;0.85;;;;;;;;;;5068539;28;20472;-70
2021/01/08 07:21:32;;;;;;;0.70;0.70;;;;;;;;;;5067913;28;20033;-71
2021/01/08 07:23:58;;;;;;;5.22;0.90;;;;;;;;;;5059560;28;20123;-72
2021/01/08 07:26:28;;;;;;;0.90;0.70;;;;;;;;;;5059999;28;20506;-68
2021/01/08 07:28:54;;;;;;;2.85;0.90;;;;;;;;;;5051978;28;20578;-69
2021/01/08 07:31:31;;;;;;;0.80;0.80;;;;;;;;;;5068774;28;20394;-69
2021/01/08 07:33:58;;;;;;;0.85;0.75;;;;;;;;;;5057172;28;20052;-70
2021/01/08 07:36:25;;;;;;;2.42;1.05;;;;;;;;;;5060017;28;20033;-70
2021/01/08 07:38:52;;;;;;;1.83;1.35;;;;;;;;;;5062977;28;20032;-69
2021/01/08 07:41:38;;;;;;;1.23;1.02;;;;;;;;;;5065017;28;20550;-69
2021/01/08 07:44:05;;;;;;;1.52;1.42;;;;;;;;;;5063287;28;20166;-69
2021/01/08 07:46:34;;;;;;;2.92;1.33;;;;;;;;;;5053855;28;20502;-69
2021/01/08 07:49:01;;;;;;;1.65;1.27;;;;;;;;;;5055058;28;20562;-70
2021/01/08 07:51:47;;;;;;;2.00;1.80;;;;;;;;;;5056976;28;20017;-69
2021/01/08 07:54:16;;;;;;;3.00;0.93;;;;;;;;;;5055270;28;20029;-69
2021/01/08 07:57:14;;;;;;;2.20;1.67;;;;;;;;;;5059249;28;20563;-70
2021/01/08 07:59:40;;;;;;;1.77;1.67;;;;;;;;;;5030365;28;20462;-68
2021/01/08 08:02:06;;;;;;;3.03;1.85;;;;;;;;;;5060135;28;20113;-69
2021/01/08 08:04:33;;;;;;;2.25;1.92;;;;;;;;;;5061150;28;20047;-72
2021/01/08 08:06:59;;;;;;;1.77;1.58;;;;;;;;;;5058800;28;20151;-69
2021/01/08 08:09:26;;;;;;;2.00;1.80;;;;;;;;;;5059897;28;20133;-69
2021/01/08 08:11:52;;;;;;;2.35;2.00;;;;;;;;;;5052218;28;20032;-69
2021/01/08 08:14:19;;;;;;;2.40;1.80;;;;;;;;;;5058560;28;20094;-68
2021/01/08 08:16:45;;;;;;;3.10;2.70;;;;;;;;;;5056883;28;20447;-69
2021/01/08 08:19:12;;;;;;;4.18;3.00;;;;;;;;;;5057912;28;20031;-69
2021/01/08 08:21:45;;;;;;;3.47;1.92;;;;;;;;;;5059348;28;20074;-73
2021/01/08 08:24:14;;;;;;;8.50;3.25;;;;;;;;;;5057374;28;20341;-69
2021/01/08 08:26:40;;;;;;;4.85;2.85;;;;;;;;;;5057045;28;20079;-68
2021/01/08 08:29:08;;;;;;;6.95;2.72;;;;;;;;;;5058578;28;20067;-70
2021/01/08 08:31:35;;;;;;;3.95;2.33;;;;;;;;;;5056719;28;20025;-70
2021/01/08 08:34:01;;;;;;;3.22;2.35;;;;;;;;;;5057048;28;20439;-69
2021/01/08 08:36:28;;;;;;;3.88;2.80;;;;;;;;;;5057027;28;20098;-68
2021/01/08 08:39:01;;;;;;;3.58;2.65;;;;;;;;;;5057013;28;20041;-68
2021/01/08 08:41:29;;;;;;;2.83;2.63;;;;;;;;;;5058611;28;20362;-69
2021/01/08 08:44:11;;;;;;;2.22;2.03;;;;;;;;;;5054946;28;20076;-69
2021/01/08 08:46:46;;;;;;;3.85;2.83;;;;;;;;;;5058008;28;20094;-68
2021/01/08 08:49:13;;;;;;;3.72;2.58;;;;;;;;;;5058748;28;20020;-68
2021/01/08 08:51:42;;;;;;;3.33;2.35;;;;;;;;;;5057665;28;20044;-68
2021/01/08 08:54:08;;;;;;;6.30;4.70;;;;;;;;;;5051750;28;20055;-68
2021/01/08 08:56:35;;;;;;;3.22;2.78;;;;;;;;;;5057862;28;20031;-68
2021/01/08 08:59:01;;;;;;;3.30;2.95;;;;;;;;;;5057356;28;20036;-69
2021/01/08 09:01:43;;;;;;;3.65;2.65;;;;;;;;;;5056037;28;20444;-68
2021/01/08 09:04:09;;;;;;;6.63;2.83;;;;;;;;;;5054648;28;20039;-68
2021/01/08 09:06:36;;;;;;;4.68;3.10;;;;;;;;;;5057610;28;20024;-69
2021/01/08 09:09:10;;;;;;;5.00;2.80;;;;;;;;;;5048540;28;20029;-69
2021/01/08 09:11:44;;;;;;;5.10;2.90;;;;;;;;;;5047735;28;20616;-70
2021/01/08 09:14:13;;;;;;;5.15;2.80;;;;;;;;;;5048799;28;20082;-70
2021/01/08 09:16:54;;;;;;;3.67;3.10;;;;;;;;;;5056591;28;20486;-70
2021/01/08 09:19:24;;;;;;;3.97;2.47;;;;;;;;;;5054589;28;20452;-69
2021/01/08 09:21:51;;;;;;;3.30;2.50;;;;;;;;;;5058025;28;20040;-69
2021/01/08 09:24:31;;;;;;;7.00;3.58;;;;;;;;;;5061196;28;20048;-70
2021/01/08 09:26:59;;;;;;;3.38;3.08;;;;;;;;;;5063875;28;20358;-69
2021/01/08 09:32:02;;;;;;;4.25;3.88;;;;;;;;;;5408885;23;20201;-70
2021/01/08 09:34:29;;;;;;;4.50;2.60;;;;;;;;;;5072912;28;20888;-70
2021/01/08 09:36:57;;;;;;;5.32;3.67;;;;;;;;;;5076755;28;20408;-69
2021/01/08 09:39:26;;;;;;;3.17;2.88;;;;;;;;;;5075631;28;20504;-70
2021/01/08 09:41:59;;;;;;;5.05;2.92;;;;;;;;;;5074907;28;20549;-70
2021/01/08 09:44:32;;;;;;;3.72;2.67;;;;;;;;;;5075068;28;20355;-69
2021/01/08 09:47:04;;;;;;;3.60;3.22;;;;;;;;;;5076634;28;20050;-70
2021/01/08 09:49:40;;;;;;;3.30;2.35;;;;;;;;;;5076671;28;20027;-69
2021/01/08 09:52:07;;;;;;;4.43;2.35;;;;;;;;;;5073389;28;20020;-70
2021/01/08 09:54:45;;;;;;;4.40;2.20;;;;;;;;;;5077304;28;20035;-69
2021/01/08 09:57:23;;;;;;;3.63;3.00;;;;;;;;;;5073125;28;20131;-70
2021/01/08 09:59:53;;;;;;;2.35;2.15;;;;;;;;;;5073554;28;20033;-69
2021/01/08 10:02:32;;;;;;;3.22;2.35;;;;;;;;;;5073653;28;20036;-69
2021/01/08 10:04:58;;;;;;;5.45;2.33;;;;;;;;;;5067990;28;20414;-69
2021/01/08 10:07:24;;;;;;;3.78;2.67;;;;;;;;;;5074663;28;20120;-69
2021/01/08 10:09:52;;;;;;;3.95;2.67;;;;;;;;;;5074346;28;20086;-70
2021/01/08 10:12:18;;;;;;;2.60;2.40;;;;;;;;;;5074565;28;20016;-69
2021/01/08 10:14:45;;;;;;;4.43;2.55;;;;;;;;;;5075566;28;20032;-70
2021/01/08 10:17:11;;;;;;;5.22;3.03;;;;;;;;;;5073472;28;20031;-69
2021/01/08 10:19:38;;;;;;;5.95;2.05;;;;;;;;;;5077455;28;20062;-69
2021/01/08 10:22:04;;;;;;;2.17;2.05;;;;;;;;;;5075763;28;20448;-70
2021/01/08 10:24:30;;;;;;;2.33;2.10;;;;;;;;;;5076890;28;20119;-73
2021/01/08 10:26:56;;;;;;;2.00;1.90;;;;;;;;;;5068608;28;20075;-69
2021/01/08 10:29:29;;;;;;;2.85;2.38;;;;;;;;;;5079325;28;20089;-69
2021/01/08 10:31:57;;;;;;;3.35;3.05;;;;;;;;;;5078319;28;20048;-71
2021/01/08 10:34:23;;;;;;;2.25;1.98;;;;;;;;;;5077100;28;20041;-69
2021/01/08 10:36:49;;;;;;;2.97;2.05;;;;;;;;;;5077537;28;20032;-69
2021/01/08 10:39:15;;;;;;;4.32;3.08;;;;;;;;;;5080149;28;20032;-70
2021/01/08 10:41:41;;;;;;;2.78;2.53;;;;;;;;;;5072343;28;20055;-70
2021/01/08 10:44:07;;;;;;;4.35;2.75;;;;;;;;;;5066698;28;20036;-70
2021/01/08 10:46:33;;;;;;;4.60;2.63;;;;;;;;;;5078653;28;20019;-69
2021/01/08 10:48:59;;;;;;;4.32;2.83;;;;;;;;;;5078453;28;20028;-69
2021/01/08 10:51:28;;;;;;;2.60;2.17;;;;;;;;;;5083260;28;20036;-70
2021/01/08 10:53:54;;;;;;;2.88;2.10;;;;;;;;;;5080305;28;20463;-69
2021/01/08 10:56:30;;;;;;;4.43;2.22;;;;;;;;;;5068348;28;20040;-69
2021/01/08 10:58:56;;;;;;;9.77;3.05;;;;;;;;;;5068121;28;20445;-69
2021/01/08 11:01:22;;;;;;;4.13;2.17;;;;;;;;;;5077865;28;20482;-69
2021/01/08 11:03:48;;;;;;;3.58;2.60;;;;;;;;;;5069560;28;20136;-71
2021/01/08 11:06:20;;;;;;;2.40;2.20;;;;;;;;;;5076774;28;20085;-71
2021/01/08 11:08:47;;;;;;;5.05;2.63;;;;;;;;;;5079525;28;20055;-73
2021/01/08 11:11:17;;;;;;;2.85;2.55;;;;;;;;;;5079049;28;20032;-72
2021/01/08 11:13:43;;;;;;;5.68;2.63;;;;;;;;;;5079382;28;20032;-71
2021/01/08 11:16:09;;;;;;;11.27;3.63;;;;;;;;;;5080600;28;20059;-72
2021/01/08 11:18:35;;;;;;;3.85;3.30;;;;;;;;;;5076908;28;20029;-71
2021/01/08 11:21:01;;;;;;;5.50;3.25;;;;;;;;;;5077209;28;20409;-72
2021/01/08 11:23:27;;;;;;;3.20;2.25;;;;;;;;;;5078403;28;20043;-72
2021/01/08 11:25:53;;;;;;;3.35;2.53;;;;;;;;;;5065817;28;20446;-70
2021/01/08 11:28:19;;;;;;;5.63;3.00;;;;;;;;;;5069083;28;20225;-71
2021/01/08 11:30:45;;;;;;;2.58;2.15;;;;;;;;;;5066756;28;20131;-69
2021/01/08 11:33:11;;;;;;;3.13;2.60;;;;;;;;;;5085565;28;20579;-70
2021/01/08 11:35:37;;;;;;;2.47;2.25;;;;;;;;;;5070446;28;20102;-70
2021/01/08 11:38:03;;;;;;;2.78;2.35;;;;;;;;;;5072413;28;20035;-70
2021/01/08 11:40:30;;;;;;;2.92;2.50;;;;;;;;;;5068775;28;20103;-70
2021/01/08 11:42:56;;;;;;;3.65;3.03;;;;;;;;;;5086923;28;20118;-69
2021/01/08 11:45:22;;;;;;;3.03;2.67;;;;;;;;;;5074145;28;20043;-70
2021/01/08 11:47:48;;;;;;;3.72;2.92;;;;;;;;;;5067567;28;20101;-70
2021/01/08 11:50:15;;;;;;;3.58;2.50;;;;;;;;;;5067964;28;20112;-70
2021/01/08 11:52:41;;;;;;;4.35;2.80;;;;;;;;;;5067012;28;20035;-69
2021/01/08 11:55:09;;;;;;;4.72;2.90;;;;;;;;;;5070369;28;20024;-70
2021/01/08 11:57:35;;;;;;;3.63;3.33;;;;;;;;;;5069947;28;20089;-69
2021/01/08 12:00:02;;;;;;;5.28;3.05;;;;;;;;;;5081069;28;20090;-70
2021/01/08 12:02:29;;;;;;;4.13;2.75;;;;;;;;;;5088207;28;20023;-70
2021/01/08 12:04:55;;;;;;;5.93;3.13;;;;;;;;;;5074202;28;20046;-70
2021/01/08 12:07:21;;;;;;;2.67;2.47;;;;;;;;;;5067903;28;20564;-70
2021/01/08 12:09:47;;;;;;;3.85;3.55;;;;;;;;;;5067440;28;20219;-70
2021/01/08 12:12:13;;;;;;;4.00;2.65;;;;;;;;;;5067478;28;20655;-70
2021/01/08 12:14:39;;;;;;;3.40;2.38;;;;;;;;;;5069309;28;20031;-69
2021/01/08 12:17:06;;;;;;;3.65;3.30;;;;;;;;;;5067260;28;20020;-70
2021/01/08 12:19:32;;;;;;;4.30;3.00;;;;;;;;;;5067673;28;20058;-69
2021/01/08 12:21:59;;;;;;;3.85;3.20;;;;;;;;;;5067589;28;20023;-70
2021/01/08 12:24:25;;;;;;;4.13;2.85;;;;;;;;;;5067253;28;20037;-70
2021/01/08 12:26:51;;;;;;;3.90;3.40;;;;;;;;;;5080558;28;20032;-71
2021/01/08 12:29:18;;;;;;;3.35;2.83;;;;;;;;;;5082596;28;20056;-71
2021/01/08 12:31:44;;;;;;;4.25;3.50;;;;;;;;;;5084360;28;20052;-70
2021/01/08 12:34:10;;;;;;;4.05;2.95;;;;;;;;;;5072629;28;21404;-70
2021/01/08 12:36:36;;;;;;;2.50;2.30;;;;;;;;;;5067363;28;21278;-70
2021/01/08 12:39:03;;;;;;;3.85;2.67;;;;;;;;;;5067194;28;20047;-71
2021/01/08 12:41:33;;;;;;;3.42;3.05;;;;;;;;;;5066588;28;20027;-72
2021/01/08 12:43:59;;;;;;;4.75;3.63;;;;;;;;;;5068189;28;20074;-70
2021/01/08 12:46:25;;;;;;;4.75;2.67;;;;;;;;;;5067403;28;20562;-71
2021/01/08 12:48:51;;;;;;;4.28;3.20;;;;;;;;;;5065250;28;20039;-70
2021/01/08 12:51:18;;;;;;;3.40;2.83;;;;;;;;;;5065956;28;20418;-70
2021/01/08 12:53:44;;;;;;;3.10;2.42;;;;;;;;;;5070041;28;20039;-71
2021/01/08 12:56:11;;;;;;;3.92;2.90;;;;;;;;;;5070184;28;20081;-71
2021/01/08 12:58:37;;;;;;;3.45;2.67;;;;;;;;;;5080494;28;20032;-71
2021/01/08 13:01:04;;;;;;;4.65;2.72;;;;;;;;;;5062038;28;20028;-71
2021/01/08 13:03:30;;;;;;;3.45;2.58;;;;;;;;;;5069799;28;20047;-70
2021/01/08 13:05:56;;;;;;;3.10;2.20;;;;;;;;;;5074097;28;20063;-69
2021/01/08 13:08:22;;;;;;;3.30;2.58;;;;;;;;;;5065941;28;20032;-70
2021/01/08 13:10:49;;;;;;;3.75;2.58;;;;;;;;;;5064619;28;20059;-71
2021/01/08 13:13:15;;;;;;;4.75;2.22;;;;;;;;;;5063571;28;20024;-70
2021/01/08 13:15:41;;;;;;;3.67;2.50;;;;;;;;;;5076339;28;20024;-74
2021/01/08 13:18:07;;;;;;;2.35;1.98;;;;;;;;;;5076126;28;20107;-70
2021/01/08 13:20:33;;;;;;;3.70;2.42;;;;;;;;;;5076914;28;20028;-68
2021/01/08 13:23:00;;;;;;;3.05;2.47;;;;;;;;;;5074297;28;20036;-74
2021/01/08 13:25:26;;;;;;;3.05;2.72;;;;;;;;;;5067561;28;20025;-71
2021/01/08 13:27:52;;;;;;;4.60;3.03;;;;;;;;;;5065231;28;20037;-70
2021/01/08 13:30:19;;;;;;;5.18;3.00;;;;;;;;;;5066139;28;20025;-71
2021/01/08 13:32:45;;;;;;;5.25;2.08;;;;;;;;;;5065454;28;20053;-69
2021/01/08 13:35:11;;;;;;;5.00;1.95;;;;;;;;;;5067087;28;20043;-69
2021/01/08 13:37:40;;;;;;;2.70;1.98;;;;;;;;;;5065030;28;20394;-69
2021/01/08 13:40:07;;;;;;;3.85;3.38;;;;;;;;;;5066073;28;20033;-70
2021/01/08 13:42:35;;;;;;;2.40;2.15;;;;;;;;;;5066066;28;20098;-69
2021/01/08 13:45:01;;;;;;;5.93;2.30;;;;;;;;;;5068198;28;20040;-70
2021/01/08 13:47:28;;;;;;;4.20;2.30;;;;;;;;;;5065856;28;20025;-69
2021/01/08 13:49:54;;;;;;;4.82;2.25;;;;;;;;;;5085429;28;20110;-70
2021/01/08 13:52:20;;;;;;;6.10;3.17;;;;;;;;;;5084657;28;20491;-70
2021/01/08 13:54:47;;;;;;;4.93;2.13;;;;;;;;;;5074932;28;20167;-70
2021/01/08 13:57:15;;;;;;;2.40;2.03;;;;;;;;;;5065642;28;20422;-70
2021/01/08 13:59:42;;;;;;;3.65;3.33;;;;;;;;;;5069839;28;20129;-69
2021/01/08 14:02:08;;;;;;;5.55;3.13;;;;;;;;;;5075305;28;20142;-70
2021/01/08 14:04:34;;;;;;;2.33;2.05;;;;;;;;;;5080420;28;20094;-69
2021/01/08 14:07:00;;;;;;;3.08;2.30;;;;;;;;;;5076244;28;20571;-70
2021/01/08 14:09:27;;;;;;;4.28;2.92;;;;;;;;;;5089861;28;20063;-71
2021/01/08 14:11:58;;;;;;;2.67;2.47;;;;;;;;;;5082729;28;20145;-71
2021/01/08 14:14:24;;;;;;;4.95;2.85;;;;;;;;;;5076588;28;20032;-70
2021/01/08 14:16:50;;;;;;;4.45;2.97;;;;;;;;;;5077163;28;20605;-70
2021/01/08 14:19:16;;;;;;;5.00;2.83;;;;;;;;;;5085314;28;20028;-70
2021/01/08 14:21:42;;;;;;;1.95;1.83;;;;;;;;;;5068332;28;20032;-69
2021/01/08 14:24:09;;;;;;;2.60;1.98;;;;;;;;;;5068645;28;20124;-70
2021/01/08 14:26:36;;;;;;;4.07;2.47;;;;;;;;;;5076786;28;20031;-70
2021/01/08 14:29:02;;;;;;;3.22;2.85;;;;;;;;;;5080573;28;20021;-70
2021/01/08 14:31:31;;;;;;;2.10;1.90;;;;;;;;;;5085114;28;20052;-70
2021/01/08 14:33:58;;;;;;;2.90;2.70;;;;;;;;;;5075879;28;21437;-70
2021/01/08 14:36:29;;;;;;;3.05;2.63;;;;;;;;;;5541387;22;20231;-71
2021/01/08 14:38:55;;;;;;;3.17;2.88;;;;;;;;;;5040393;28;20731;-70
2021/01/08 14:41:22;;;;;;;2.15;1.90;;;;;;;;;;5027341;28;20052;-70
2021/01/08 14:43:48;;;;;;;4.45;2.60;;;;;;;;;;5026624;28;20069;-70
2021/01/08 14:46:15;;;;;;;3.67;2.47;;;;;;;;;;5028719;28;20037;-70